createdAt,value
2019-02-20T00:00:42.983Z,18.97
2019-02-20T00:02:46.640Z,13.70
2019-02-20T00:04:50.339Z,15.43
2019-02-20T00:06:54.081Z,10.77
2019-02-20T00:08:59.299Z,15.83
2019-02-20T00:11:02.990Z,11.77
2019-02-20T00:13:06.775Z,12.73
2019-02-20T00:15:10.549Z,15.57
2019-02-20T00:17:14.216Z,11.90
2019-02-20T00:19:17.987Z,12.60
2019-02-20T00:21:21.647Z,9.83
2019-02-20T00:23:25.308Z,11.77
2019-02-20T00:25:28.984Z,9.20
2019-02-20T00:27:32.651Z,8.87
2019-02-20T00:29:36.336Z,14.53
2019-02-20T00:31:40.067Z,12.20
2019-02-20T00:33:43.722Z,11.57
2019-02-20T00:35:47.417Z,10.07
2019-02-20T00:37:51.230Z,11.93
2019-02-20T00:39:54.911Z,9.23
2019-02-20T00:41:58.608Z,14.50
2019-02-20T00:44:03.844Z,10.43
2019-02-20T00:46:09.111Z,10.53
2019-02-20T00:48:14.359Z,10.40
2019-02-20T00:50:19.088Z,10.87
2019-02-20T00:52:35.820Z,11.80
2019-02-20T00:54:39.483Z,10.13
2019-02-20T00:56:43.171Z,10.90
2019-02-20T00:58:46.835Z,13.43
2019-02-20T01:00:50.600Z,10.87
2019-02-20T01:02:54.284Z,11.50
2019-02-20T01:04:57.938Z,11.47
2019-02-20T01:07:01.660Z,10.57
2019-02-20T01:09:06.426Z,11.20
2019-02-20T01:11:10.140Z,10.53
2019-02-20T01:13:13.827Z,11.27
2019-02-20T01:15:17.534Z,13.20
2019-02-20T01:17:21.232Z,10.93
2019-02-20T01:19:24.892Z,12.43
2019-02-20T01:21:28.749Z,11.77
2019-02-20T01:23:32.472Z,15.73
2019-02-20T01:25:36.144Z,13.23
2019-02-20T01:27:39.818Z,12.30
2019-02-20T01:29:43.500Z,15.57
2019-02-20T01:31:47.199Z,16.20
2019-02-20T01:33:51.072Z,16.53
2019-02-20T01:35:54.733Z,19.37
2019-02-20T01:37:58.426Z,16.47
2019-02-20T01:40:02.138Z,14.87
2019-02-20T01:42:05.823Z,15.57
2019-02-20T01:44:09.476Z,12.33
2019-02-20T01:46:13.233Z,11.90
2019-02-20T01:48:16.939Z,12.57
2019-02-20T01:50:20.682Z,10.30
2019-02-20T01:52:24.342Z,12.43
2019-02-20T01:54:28.040Z,10.37
2019-02-20T01:56:31.694Z,13.07
2019-02-20T01:58:35.479Z,12.13
2019-02-20T02:00:39.156Z,11.17
2019-02-20T02:02:42.864Z,12.00
2019-02-20T02:04:46.519Z,11.37
2019-02-20T02:06:50.174Z,9.90
2019-02-20T02:08:53.921Z,12.73
2019-02-20T02:10:57.737Z,13.57
2019-02-20T02:13:01.468Z,12.93
2019-02-20T02:15:06.693Z,12.67
2019-02-20T02:17:10.505Z,13.43
2019-02-20T02:19:14.205Z,11.73
2019-02-20T02:21:17.867Z,13.07
2019-02-20T02:23:21.562Z,13.27
2019-02-20T02:25:25.252Z,14.17
2019-02-20T02:27:28.906Z,14.77
2019-02-20T02:29:32.604Z,14.50
2019-02-20T02:31:36.275Z,11.77
2019-02-20T02:33:39.968Z,19.57
2019-02-20T02:35:43.644Z,14.73
2019-02-20T02:37:47.403Z,19.17
2019-02-20T02:39:51.119Z,15.53
2019-02-20T02:41:54.791Z,14.73
2019-02-20T02:43:58.542Z,13.30
2019-02-20T02:46:02.242Z,16.27
2019-02-20T02:48:05.987Z,15.83
2019-02-20T02:50:09.742Z,12.90
2019-02-20T02:52:13.409Z,13.17
2019-02-20T02:54:17.110Z,17.10
2019-02-20T02:56:20.785Z,14.43
2019-02-20T02:58:24.496Z,16.70
2019-02-20T03:00:28.195Z,14.87
2019-02-20T03:02:31.859Z,15.07
2019-02-20T03:04:35.528Z,18.33
2019-02-20T03:06:39.226Z,17.03
2019-02-20T03:08:42.944Z,16.80
2019-02-20T03:10:46.732Z,15.33
2019-02-20T03:12:50.415Z,16.97
2019-02-20T03:14:54.109Z,17.00
2019-02-20T03:16:58.070Z,19.83
2019-02-20T03:19:01.752Z,15.20
2019-02-20T03:21:05.452Z,17.03
2019-02-20T03:23:09.111Z,18.53
2019-02-20T03:25:12.890Z,19.03
2019-02-20T03:27:16.571Z,19.07
2019-02-20T03:29:20.243Z,15.50
2019-02-20T03:31:23.937Z,17.57
2019-02-20T03:33:27.611Z,18.27
2019-02-20T03:35:31.316Z,14.87
2019-02-20T03:37:35.005Z,17.03
2019-02-20T03:39:38.663Z,15.90
2019-02-20T03:41:42.439Z,17.57
2019-02-20T03:43:46.110Z,16.20
2019-02-20T03:45:49.828Z,14.40
2019-02-20T03:47:53.493Z,15.37
2019-02-20T03:49:57.152Z,14.13
2019-02-20T03:52:00.890Z,15.33
2019-02-20T03:54:04.561Z,16.67
2019-02-20T03:56:08.252Z,16.17
2019-02-20T03:58:12.011Z,14.80
2019-02-20T04:00:15.768Z,15.30
2019-02-20T04:02:19.437Z,15.47
2019-02-20T04:04:23.106Z,18.93
2019-02-20T04:06:26.821Z,15.63
2019-02-20T04:08:30.495Z,16.37
2019-02-20T04:10:34.157Z,16.20
2019-02-20T04:12:37.965Z,17.70
2019-02-20T04:14:41.667Z,15.63
2019-02-20T04:16:45.356Z,17.20
2019-02-20T04:18:49.024Z,14.20
2019-02-20T04:20:52.697Z,15.70
2019-02-20T04:22:56.379Z,17.20
2019-02-20T04:25:00.034Z,17.70
2019-02-20T04:27:03.758Z,16.23
2019-02-20T04:29:07.502Z,18.03
2019-02-20T04:31:11.169Z,16.97
2019-02-20T04:33:15.052Z,15.73
2019-02-20T04:35:18.770Z,17.23
2019-02-20T04:37:22.467Z,16.47
2019-02-20T04:39:26.193Z,16.30
2019-02-20T04:41:29.848Z,15.70
2019-02-20T04:43:33.626Z,18.17
2019-02-20T04:45:37.304Z,16.17
2019-02-20T04:47:41.018Z,16.00
2019-02-20T04:49:44.739Z,20.13
2019-02-20T04:51:48.421Z,23.10
2019-02-20T04:53:52.125Z,17.10
2019-02-20T04:55:55.784Z,15.87
2019-02-20T04:58:16.275Z,15.30
2019-02-20T05:00:19.945Z,17.83
2019-02-20T05:02:23.606Z,14.50
2019-02-20T05:04:27.296Z,17.97
2019-02-20T05:06:30.966Z,17.33
2019-02-20T05:08:34.668Z,18.83
2019-02-20T05:10:38.344Z,19.10
2019-02-20T05:12:42.104Z,18.23
2019-02-20T05:14:45.785Z,16.53
2019-02-20T05:16:49.461Z,16.63
2019-02-20T05:18:53.148Z,16.20
2019-02-20T05:20:56.819Z,17.63
2019-02-20T05:23:00.479Z,17.33
2019-02-20T05:25:04.808Z,17.73
2019-02-20T05:27:08.623Z,19.60
2019-02-20T05:29:12.450Z,18.70
2019-02-20T05:31:16.640Z,20.50
2019-02-20T05:33:20.646Z,17.73
2019-02-20T05:35:24.331Z,18.93
2019-02-20T05:37:28.014Z,18.17
2019-02-20T05:39:31.812Z,16.80
2019-02-20T05:41:35.480Z,18.40
2019-02-20T05:43:39.147Z,22.47
2019-02-20T05:45:42.839Z,21.47
2019-02-20T05:47:46.512Z,17.27
2019-02-20T05:49:50.215Z,20.77
2019-02-20T05:51:53.906Z,19.27
2019-02-20T05:53:57.592Z,21.27
2019-02-20T05:56:01.274Z,19.47
2019-02-20T05:58:04.946Z,19.43
2019-02-20T06:00:11.722Z,19.93
2019-02-20T06:02:15.507Z,18.70
2019-02-20T06:04:19.176Z,20.10
2019-02-20T06:06:22.947Z,22.50
2019-02-20T06:08:26.616Z,19.27
2019-02-20T06:10:30.304Z,19.50
2019-02-20T06:12:33.969Z,18.53
2019-02-20T06:14:37.656Z,20.50
2019-02-20T06:16:41.335Z,19.10
2019-02-20T06:18:45.103Z,21.30
2019-02-20T06:20:48.872Z,21.07
2019-02-20T06:25:27.795Z,20.27
2019-02-20T06:27:31.514Z,19.90
2019-02-20T06:29:35.178Z,20.00
2019-02-20T06:31:38.883Z,20.43
2019-02-20T06:33:42.556Z,19.97
2019-02-20T06:35:46.329Z,22.33
2019-02-20T06:37:50.039Z,23.47
2019-02-20T06:39:53.694Z,21.20
2019-02-20T06:41:57.505Z,22.77
2019-02-20T06:44:01.162Z,19.60
2019-02-20T06:46:04.858Z,22.63
2019-02-20T06:48:08.599Z,22.50
2019-02-20T06:50:12.274Z,20.13
2019-02-20T06:52:15.998Z,19.50
2019-02-20T06:54:19.651Z,19.03
2019-02-20T06:56:23.373Z,21.60
2019-02-20T06:58:27.045Z,18.87
2019-02-20T07:00:30.830Z,21.90
2019-02-20T07:02:35.770Z,27.67
2019-02-20T07:04:39.566Z,29.63
2019-02-20T07:06:52.182Z,25.00
2019-02-20T07:09:15.228Z,23.47
2019-02-20T07:11:44.648Z,21.67
2019-02-20T07:14:07.671Z,24.50
2019-02-20T07:16:46.875Z,24.37
2019-02-20T07:19:10.540Z,25.33
2019-02-20T07:21:41.987Z,22.73
2019-02-20T07:23:54.127Z,22.73
2019-02-20T07:26:17.418Z,24.37
2019-02-20T07:28:35.182Z,30.40
2019-02-20T07:30:38.852Z,24.70
2019-02-20T07:32:42.640Z,25.47
2019-02-20T07:34:46.312Z,26.07
2019-02-20T07:36:49.980Z,124.07
2019-02-20T07:38:53.736Z,115.90
2019-02-20T07:40:57.403Z,42.43
2019-02-20T07:43:01.131Z,37.50
2019-02-20T07:45:06.936Z,25.40
2019-02-20T07:47:10.600Z,23.67
2019-02-20T07:49:14.295Z,25.47
2019-02-20T07:51:17.976Z,25.97
2019-02-20T07:53:21.668Z,29.30
2019-02-20T07:55:25.345Z,28.37
2019-02-20T07:57:29.011Z,27.10
2019-02-20T07:59:32.704Z,30.30
2019-02-20T08:01:36.367Z,26.23
2019-02-20T08:03:40.083Z,26.67
2019-02-20T08:05:43.928Z,28.87
2019-02-20T08:07:47.655Z,26.30
2019-02-20T08:09:51.369Z,25.77
2019-02-20T08:11:55.041Z,27.67
2019-02-20T08:13:58.708Z,28.20
2019-02-20T08:16:02.414Z,27.30
2019-02-20T08:18:06.085Z,24.13
2019-02-20T08:20:10.682Z,27.30
2019-02-20T08:22:14.351Z,27.10
2019-02-20T08:24:18.238Z,28.13
2019-02-20T08:26:21.967Z,26.07
2019-02-20T08:28:25.621Z,25.90
2019-02-20T08:30:29.312Z,27.63
2019-02-20T08:32:32.983Z,28.77
2019-02-20T08:34:36.660Z,31.13
2019-02-20T08:36:40.391Z,31.77
2019-02-20T08:38:44.176Z,27.60
2019-02-20T08:40:47.898Z,29.13
2019-02-20T08:42:51.558Z,29.17
2019-02-20T08:44:55.230Z,29.33
2019-02-20T08:46:58.930Z,29.13
2019-02-20T08:49:02.598Z,32.13
2019-02-20T08:51:06.304Z,24.90
2019-02-20T08:53:09.970Z,30.03
2019-02-20T08:55:13.649Z,30.60
2019-02-20T08:57:17.445Z,32.33
2019-02-20T08:59:21.128Z,27.53
2019-02-20T09:01:24.829Z,31.30
2019-02-20T09:03:28.482Z,26.93
2019-02-20T09:05:34.188Z,26.57
2019-02-20T09:07:37.690Z,27.53
2019-02-20T09:09:41.355Z,34.27
2019-02-20T09:11:45.672Z,30.83
2019-02-20T09:13:49.398Z,30.80
2019-02-20T09:15:53.228Z,32.00
2019-02-20T09:17:56.910Z,32.33
2019-02-20T09:20:00.592Z,29.27
2019-02-20T09:22:04.388Z,32.13
2019-02-20T09:24:08.173Z,32.13
2019-02-20T09:26:11.831Z,34.23
2019-02-20T09:28:15.523Z,31.97
2019-02-20T09:30:28.080Z,33.47
2019-02-20T09:32:24.635Z,31.40
2019-02-20T09:34:28.367Z,29.80
2019-02-20T09:36:32.061Z,32.93
2019-02-20T09:38:35.755Z,29.33
2019-02-20T09:40:39.415Z,31.10
2019-02-20T09:42:44.404Z,32.60
2019-02-20T09:44:48.130Z,33.13
2019-02-20T09:46:51.804Z,30.27
2019-02-20T09:48:55.503Z,28.57
2019-02-20T09:50:59.200Z,39.47
2019-02-20T09:53:02.955Z,34.23
2019-02-20T09:55:11.903Z,31.57
2019-02-20T09:57:15.576Z,40.33
2019-02-20T09:59:19.266Z,37.43
2019-02-20T10:01:22.952Z,34.00
2019-02-20T10:03:26.711Z,35.63
2019-02-20T10:05:30.463Z,34.60
2019-02-20T10:07:34.161Z,38.77
2019-02-20T10:09:37.967Z,38.67
2019-02-20T10:11:41.749Z,38.80
2019-02-20T10:13:45.435Z,39.70
2019-02-20T10:15:49.111Z,35.00
2019-02-20T10:17:52.849Z,37.33
2019-02-20T10:19:56.568Z,35.70
2019-02-20T10:22:00.290Z,32.43
2019-02-20T10:24:04.323Z,30.57
2019-02-20T10:26:07.980Z,34.87
2019-02-20T10:28:11.693Z,32.63
2019-02-20T10:30:19.770Z,34.63
2019-02-20T10:32:23.451Z,33.10
2019-02-20T10:34:27.269Z,32.37
2019-02-20T10:36:30.936Z,32.00
2019-02-20T10:38:34.681Z,26.17
2019-02-20T10:40:38.399Z,28.87
2019-02-20T10:42:42.087Z,14.97
2019-02-20T10:44:45.884Z,10.80
2019-02-20T10:46:49.557Z,12.20
2019-02-20T10:48:53.230Z,10.53
2019-02-20T10:50:56.927Z,10.37
2019-02-20T10:53:00.612Z,12.33
2019-02-20T10:55:05.923Z,10.03
2019-02-20T10:57:09.643Z,10.53
2019-02-20T10:59:13.388Z,14.40
2019-02-20T11:01:17.060Z,11.13
2019-02-20T11:03:20.724Z,16.80
2019-02-20T11:05:24.476Z,9.23
2019-02-20T11:07:28.148Z,9.60
2019-02-20T11:09:31.951Z,7.03
2019-02-20T11:11:35.819Z,9.10
2019-02-20T11:13:39.474Z,9.80
2019-02-20T11:15:43.167Z,11.10
2019-02-20T11:17:46.842Z,8.30
2019-02-20T11:19:50.539Z,9.00
2019-02-20T11:21:54.222Z,6.93
2019-02-20T11:23:57.922Z,8.57
2019-02-20T11:26:01.630Z,11.37
2019-02-20T11:28:05.387Z,8.63
2019-02-20T11:30:17.368Z,7.80
2019-02-20T11:32:21.031Z,7.17
2019-02-20T11:34:24.767Z,10.37
2019-02-20T11:36:28.567Z,7.30
2019-02-20T11:38:32.238Z,7.63
2019-02-20T11:40:35.933Z,10.17
2019-02-20T11:42:39.776Z,6.43
2019-02-20T11:44:43.448Z,7.27
2019-02-20T11:46:47.248Z,7.77
2019-02-20T11:48:50.920Z,9.60
2019-02-20T11:50:54.570Z,8.17
2019-02-20T11:52:58.272Z,8.30
2019-02-20T11:55:01.956Z,7.53
2019-02-20T11:57:05.645Z,8.63
2019-02-20T11:59:09.303Z,6.90
2019-02-20T12:01:13.032Z,8.80
2019-02-20T12:03:16.775Z,9.60
2019-02-20T12:05:20.439Z,11.00
2019-02-20T12:07:24.119Z,9.57
2019-02-20T12:09:27.778Z,7.67
2019-02-20T12:11:31.464Z,8.07
2019-02-20T12:13:35.156Z,10.47
2019-02-20T12:15:38.823Z,11.70
2019-02-20T12:17:42.548Z,7.13
2019-02-20T12:19:46.325Z,7.70
2019-02-20T12:21:50.023Z,14.13
2019-02-20T12:23:53.718Z,10.50
2019-02-20T12:25:57.383Z,6.47
2019-02-20T12:28:01.072Z,6.43
2019-02-20T12:30:07.310Z,6.97
2019-02-20T12:32:10.984Z,6.93
2019-02-20T12:34:14.779Z,6.57
2019-02-20T12:36:18.564Z,8.70
2019-02-20T12:38:22.263Z,9.30
2019-02-20T12:40:25.942Z,7.53
2019-02-20T12:42:29.639Z,9.10
2019-02-20T12:44:33.509Z,8.10
2019-02-20T12:46:37.178Z,8.53
2019-02-20T12:48:40.962Z,7.53
2019-02-20T12:50:44.636Z,7.80
2019-02-20T12:52:48.342Z,6.97
2019-02-20T12:54:52.046Z,7.73
2019-02-20T12:56:55.711Z,8.07
2019-02-20T12:59:07.411Z,9.03
2019-02-20T13:01:05.135Z,9.20
2019-02-20T13:03:08.804Z,8.53
2019-02-20T13:05:12.501Z,9.27
2019-02-20T13:07:17.669Z,12.40
2019-02-20T13:09:21.855Z,8.00
2019-02-20T13:11:25.533Z,5.23
2019-02-20T13:13:29.196Z,5.83
2019-02-20T13:15:33.065Z,6.37
2019-02-20T13:17:36.747Z,8.30
2019-02-20T13:19:40.447Z,8.23
2019-02-20T13:21:44.112Z,6.17
2019-02-20T13:23:47.792Z,5.80
2019-02-20T13:25:51.494Z,6.90
2019-02-20T13:27:55.157Z,9.63
2019-02-20T13:29:58.892Z,6.57
2019-02-20T13:32:02.667Z,8.10
2019-02-20T13:34:06.336Z,8.33
2019-02-20T13:36:10.064Z,11.90
2019-02-20T13:38:13.778Z,9.57
2019-02-20T13:40:17.452Z,8.70
2019-02-20T13:42:21.226Z,7.00
2019-02-20T13:44:25.054Z,9.50
2019-02-20T13:46:29.134Z,9.90
2019-02-20T13:48:32.801Z,9.20
2019-02-20T13:50:36.559Z,7.13
2019-02-20T13:52:40.224Z,8.57
2019-02-20T13:54:43.921Z,11.27
2019-02-20T13:56:47.693Z,12.83
2019-02-20T13:58:51.363Z,9.17
2019-02-20T14:00:55.063Z,8.57
2019-02-20T14:02:58.726Z,9.10
2019-02-20T14:05:02.449Z,8.93
2019-02-20T14:07:06.147Z,9.27
2019-02-20T14:09:10.115Z,7.40
2019-02-20T14:11:13.879Z,8.60
2019-02-20T14:13:17.576Z,8.80
2019-02-20T14:15:21.627Z,11.03
2019-02-20T14:17:26.917Z,11.60
2019-02-20T14:19:30.874Z,10.20
2019-02-20T14:21:34.777Z,10.03
2019-02-20T14:23:38.443Z,10.77
2019-02-20T14:25:44.400Z,8.80
2019-02-20T14:27:48.167Z,7.40
2019-02-20T14:29:51.912Z,13.07
2019-02-20T14:31:55.612Z,10.57
2019-02-20T14:33:59.355Z,9.07
2019-02-20T14:36:03.505Z,9.23
2019-02-20T14:38:07.259Z,9.33
2019-02-20T14:40:10.922Z,8.33
2019-02-20T14:42:14.717Z,7.80
2019-02-20T14:44:18.390Z,10.50
2019-02-20T14:46:22.065Z,7.87
2019-02-20T14:48:25.852Z,8.77
2019-02-20T14:50:29.518Z,10.97
2019-02-20T14:52:33.222Z,9.23
2019-02-20T14:54:36.899Z,8.67
2019-02-20T14:56:40.557Z,9.33
2019-02-20T14:58:44.253Z,10.67
2019-02-20T15:00:48.020Z,8.83
2019-02-20T15:02:51.709Z,10.50
2019-02-20T15:04:55.747Z,11.67
2019-02-20T15:06:59.510Z,10.73
2019-02-20T15:09:04.763Z,8.57
2019-02-20T15:11:10.290Z,9.17
2019-02-20T15:13:13.806Z,12.37
2019-02-20T15:15:19.022Z,11.33
2019-02-20T15:17:22.922Z,11.07
2019-02-20T15:19:26.738Z,11.00
2019-02-20T15:21:30.409Z,8.40
2019-02-20T15:23:34.171Z,9.20
2019-02-20T15:25:38.218Z,13.80
2019-02-20T15:27:41.910Z,17.03
2019-02-20T15:29:45.673Z,8.47
2019-02-20T15:31:49.336Z,8.00
2019-02-20T15:33:53.356Z,7.23
2019-02-20T15:35:57.300Z,8.60
2019-02-20T15:38:00.972Z,10.80
2019-02-20T15:40:06.364Z,9.13
2019-02-20T15:42:10.042Z,11.47
2019-02-20T15:44:13.731Z,9.33
2019-02-20T15:46:17.436Z,12.70
2019-02-20T15:48:23.331Z,11.63
2019-02-20T15:50:26.521Z,8.03
2019-02-20T15:52:30.374Z,9.43
2019-02-20T15:54:34.055Z,8.60
2019-02-20T15:56:37.731Z,10.37
2019-02-20T15:58:41.391Z,12.53
2019-02-20T16:00:45.093Z,11.93
2019-02-20T16:02:48.847Z,11.43
2019-02-20T16:04:52.928Z,10.80
2019-02-20T16:06:56.664Z,9.57
2019-02-20T16:09:00.347Z,11.90
2019-02-20T16:11:04.159Z,10.83
2019-02-20T16:13:07.900Z,14.53
2019-02-20T16:15:11.960Z,16.93
2019-02-20T16:17:15.647Z,23.73
2019-02-20T16:19:19.387Z,14.77
2019-02-20T16:21:23.165Z,19.27
2019-02-20T16:23:26.840Z,22.73
2019-02-20T16:25:30.538Z,20.37
2019-02-20T16:27:34.211Z,23.53
2019-02-20T16:29:37.890Z,20.93
2019-02-20T16:31:41.595Z,24.13
2019-02-20T16:33:45.324Z,30.07
2019-02-20T16:35:53.376Z,33.70
2019-02-20T16:37:56.980Z,21.40
2019-02-20T16:40:00.653Z,13.20
2019-02-20T16:42:04.357Z,12.40
2019-02-20T16:44:10.010Z,18.43
2019-02-20T16:46:13.466Z,12.80
2019-02-20T16:48:17.144Z,13.47
2019-02-20T16:50:20.816Z,14.77
2019-02-20T16:52:24.502Z,16.30
2019-02-20T16:54:28.371Z,22.90
2019-02-20T16:56:32.169Z,48.70
2019-02-20T16:58:35.898Z,29.73
2019-02-20T17:00:39.928Z,19.23
2019-02-20T17:02:43.874Z,24.30
2019-02-20T17:04:47.837Z,14.97
2019-02-20T17:06:51.532Z,12.77
2019-02-20T17:08:55.224Z,8.97
2019-02-20T17:10:58.895Z,9.20
2019-02-20T17:13:02.673Z,11.93
2019-02-20T17:15:12.542Z,12.23
2019-02-20T17:17:16.238Z,13.30
2019-02-20T17:19:20.092Z,12.40
2019-02-20T17:21:23.767Z,10.00
2019-02-20T17:23:27.494Z,15.70
2019-02-20T17:25:31.469Z,13.13
2019-02-20T17:27:35.171Z,12.73
2019-02-20T17:29:38.935Z,10.17
2019-02-20T17:31:42.606Z,15.30
2019-02-20T17:33:46.333Z,12.90
2019-02-20T17:35:50.369Z,15.27
2019-02-20T17:37:54.053Z,22.67
2019-02-20T17:39:57.828Z,16.70
2019-02-20T17:42:01.566Z,13.97
2019-02-20T17:44:05.258Z,8.93
2019-02-20T17:46:09.509Z,8.60
2019-02-20T17:48:13.239Z,9.27
2019-02-20T17:50:19.309Z,12.33
2019-02-20T17:52:23.242Z,11.17
2019-02-20T17:54:26.939Z,8.43
2019-02-20T17:56:30.991Z,7.73
2019-02-20T17:58:34.664Z,10.57
2019-02-20T18:00:38.470Z,12.23
2019-02-20T18:02:42.141Z,12.90
2019-02-20T18:04:45.845Z,9.83
2019-02-20T18:06:49.499Z,9.53
2019-02-20T18:08:53.301Z,12.03
2019-02-20T18:10:57.006Z,8.63
2019-02-20T18:13:00.673Z,8.57
2019-02-20T18:15:05.808Z,10.90
2019-02-20T18:17:09.471Z,13.40
2019-02-20T18:19:13.159Z,13.77
2019-02-20T18:21:16.844Z,10.57
2019-02-20T18:23:20.630Z,11.93
2019-02-20T18:25:24.307Z,10.80
2019-02-20T18:27:27.988Z,15.53
2019-02-20T18:29:31.724Z,13.87
2019-02-20T18:31:35.430Z,13.30
2019-02-20T18:33:39.112Z,13.47
2019-02-20T18:35:42.816Z,11.80
2019-02-20T18:37:46.602Z,9.07
2019-02-20T18:39:50.266Z,12.57
2019-02-20T18:41:53.953Z,17.90
2019-02-20T18:43:57.624Z,17.53
2019-02-20T18:46:01.436Z,14.87
2019-02-20T18:48:05.114Z,15.73
2019-02-20T18:50:11.384Z,17.20
2019-02-20T18:52:15.105Z,13.57
2019-02-20T18:54:18.866Z,20.17
2019-02-20T18:56:22.608Z,12.17
2019-02-20T18:58:33.742Z,11.37
2019-02-20T19:00:31.918Z,13.17
2019-02-20T19:02:35.626Z,14.70
2019-02-20T19:04:39.310Z,10.87
2019-02-20T19:06:43.077Z,12.30
2019-02-20T19:08:49.349Z,11.57
2019-02-20T19:10:55.977Z,14.07
2019-02-20T19:13:11.808Z,9.80
2019-02-20T19:15:44.451Z,12.40
2019-02-20T19:18:09.339Z,10.13
2019-02-20T19:20:24.914Z,16.43
2019-02-20T19:22:34.351Z,18.93
2019-02-20T19:24:46.735Z,9.90
2019-02-20T19:27:13.691Z,7.73
2019-02-20T19:29:45.587Z,10.73
2019-02-20T19:32:04.498Z,9.63
2019-02-20T19:34:11.203Z,12.03
2019-02-20T19:36:35.867Z,17.77
2019-02-20T19:38:45.421Z,13.30
2019-02-20T19:40:52.034Z,11.33
2019-02-20T19:43:01.587Z,13.77
2019-02-20T19:45:22.993Z,11.47
2019-02-20T19:47:35.391Z,13.27
2019-02-20T19:49:42.087Z,26.13
2019-02-20T19:52:06.920Z,20.40
2019-02-20T19:54:16.142Z,10.13
2019-02-20T19:56:40.725Z,15.17
2019-02-20T19:59:10.107Z,10.40
2019-02-20T20:01:31.623Z,10.07
2019-02-20T20:03:59.051Z,10.20
2019-02-20T20:06:08.610Z,7.60
2019-02-20T20:08:15.280Z,16.20
2019-02-20T20:10:33.506Z,14.57
2019-02-20T20:12:59.460Z,17.23
2019-02-20T20:15:27.488Z,12.27
2019-02-20T20:17:50.398Z,15.60
2019-02-20T20:19:57.101Z,19.80
2019-02-20T20:22:37.254Z,20.40
2019-02-20T20:24:47.029Z,21.37
2019-02-20T20:26:59.034Z,21.63
2019-02-20T20:29:22.193Z,28.97
2019-02-20T20:31:43.652Z,23.53
2019-02-20T20:34:07.250Z,21.93
2019-02-20T20:36:19.402Z,18.37
2019-02-20T20:38:59.151Z,16.03
2019-02-20T20:41:17.346Z,17.63
2019-02-20T20:43:36.080Z,21.07
2019-02-20T20:45:42.753Z,21.83
2019-02-20T20:48:12.001Z,22.30
2019-02-20T20:50:16.907Z,27.03
2019-02-20T20:52:26.423Z,20.13
2019-02-20T20:54:54.917Z,24.63
2019-02-20T20:57:20.035Z,19.60
2019-02-20T20:59:26.665Z,17.90
2019-02-20T21:01:41.899Z,15.83
2019-02-20T21:03:57.058Z,18.87
2019-02-20T21:06:25.016Z,19.43
2019-02-20T21:08:34.123Z,14.87
2019-02-20T21:11:05.139Z,20.80
2019-02-20T21:13:23.429Z,23.67
2019-02-20T21:15:58.795Z,17.40
2019-02-20T21:18:24.935Z,13.33
2019-02-20T21:20:48.284Z,15.73
2019-02-20T21:23:04.041Z,14.80
2019-02-20T21:25:19.513Z,15.57
2019-02-20T21:27:47.716Z,16.03
2019-02-20T21:30:03.256Z,15.73
2019-02-20T21:32:12.697Z,14.83
2019-02-20T21:34:40.356Z,14.80
2019-02-20T21:36:59.062Z,14.07
2019-02-20T21:39:22.095Z,14.83
2019-02-20T21:41:55.581Z,13.90
2019-02-20T21:44:33.693Z,14.63
2019-02-20T21:46:55.170Z,19.17
2019-02-20T21:49:04.365Z,12.63
2019-02-20T21:51:13.477Z,13.50
2019-02-20T21:53:20.107Z,11.57
2019-02-20T21:56:00.116Z,12.40
2019-02-20T21:58:09.677Z,16.47
2019-02-20T22:00:38.965Z,15.27
2019-02-20T22:02:48.158Z,11.17
2019-02-20T22:04:59.784Z,10.73
2019-02-20T22:07:09.336Z,10.53
2019-02-20T22:09:18.772Z,8.27
2019-02-20T22:11:39.407Z,9.80
2019-02-20T22:13:57.787Z,8.87
2019-02-20T22:16:31.870Z,12.50
2019-02-20T22:18:50.232Z,12.43
2019-02-20T22:21:13.624Z,12.63
2019-02-20T22:23:25.938Z,20.53
2019-02-20T22:25:41.609Z,26.93
2019-02-20T22:27:51.034Z,24.93
2019-02-20T22:30:06.682Z,33.97
2019-02-20T22:32:16.166Z,29.17
2019-02-20T22:34:34.711Z,23.50
2019-02-20T22:36:41.318Z,20.57
2019-02-20T22:38:54.122Z,19.33
2019-02-20T22:41:06.491Z,14.93
2019-02-20T22:43:15.690Z,16.37
2019-02-20T22:45:30.598Z,16.50
2019-02-20T22:47:54.192Z,17.33
2019-02-20T22:50:09.318Z,17.33
2019-02-20T22:52:24.957Z,18.43
2019-02-20T22:54:53.791Z,20.20
2019-02-20T22:57:06.626Z,16.43
2019-02-20T22:59:45.092Z,16.90
2019-02-20T23:02:12.320Z,33.63
2019-02-20T23:04:35.015Z,31.10
2019-02-20T23:06:50.445Z,24.07
2019-02-20T23:09:09.094Z,19.70
2019-02-20T23:11:30.584Z,21.43
2019-02-20T23:13:48.823Z,21.03
2019-02-20T23:15:52.531Z,15.27
2019-02-20T23:17:56.279Z,16.47
2019-02-20T23:20:00.049Z,19.83
2019-02-20T23:22:03.735Z,17.23
2019-02-20T23:24:07.396Z,14.83
2019-02-20T23:26:11.082Z,17.87
2019-02-20T23:28:14.791Z,15.27
2019-02-20T23:30:18.456Z,20.87
2019-02-20T23:32:22.254Z,20.57
2019-02-20T23:34:25.966Z,20.53
2019-02-20T23:36:29.672Z,16.63
2019-02-20T23:38:33.538Z,15.37
2019-02-20T23:40:37.205Z,15.33
2019-02-20T23:42:40.907Z,15.63
2019-02-20T23:44:44.566Z,17.40
2019-02-20T23:46:48.227Z,16.77
2019-02-20T23:48:51.903Z,15.83
2019-02-20T23:50:55.567Z,20.10
2019-02-20T23:52:59.246Z,13.90
2019-02-20T23:55:04.620Z,19.83
2019-02-20T23:57:08.290Z,15.27
2019-02-20T23:59:13.895Z,16.03
